createdAt,value
2023-04-22T00:00:09.032Z,11.34
2023-04-22T00:02:38.606Z,11.39
2023-04-22T00:05:07.242Z,11.32
2023-04-22T00:07:35.060Z,11.19
2023-04-22T00:10:04.086Z,11.04
2023-04-22T00:12:31.934Z,11.03
2023-04-22T00:14:59.384Z,11.15
2023-04-22T00:17:27.074Z,11.14
2023-04-22T00:19:54.563Z,11.01
2023-04-22T00:22:22.019Z,10.89
2023-04-22T00:24:49.529Z,10.83
2023-04-22T00:27:18.791Z,10.77
2023-04-22T00:29:46.238Z,10.75
2023-04-22T00:32:13.746Z,10.71
2023-04-22T00:34:41.171Z,10.73
2023-04-22T00:37:08.640Z,10.88
2023-04-22T00:39:39.186Z,10.84
2023-04-22T00:42:07.444Z,10.75
2023-04-22T00:44:36.992Z,10.74
2023-04-22T00:47:05.134Z,10.74
2023-04-22T00:49:33.460Z,10.86
2023-04-22T00:52:00.910Z,10.76
2023-04-22T00:54:28.760Z,10.66
2023-04-22T00:56:57.773Z,10.63
2023-04-22T00:59:26.503Z,10.88
2023-04-22T01:01:55.367Z,10.76
2023-04-22T01:04:24.181Z,10.78
2023-04-22T01:06:52.884Z,10.83
2023-04-22T01:09:20.594Z,10.79
2023-04-22T01:11:48.320Z,10.76
2023-04-22T01:14:16.431Z,10.84
2023-04-22T01:16:44.697Z,10.92
2023-04-22T01:19:13.610Z,10.90
2023-04-22T01:21:41.664Z,10.87
2023-04-22T01:24:10.522Z,10.84
2023-04-22T01:26:38.046Z,10.68
2023-04-22T01:29:06.669Z,10.70
2023-04-22T01:31:34.806Z,10.68
2023-04-22T01:34:02.446Z,10.59
2023-04-22T01:36:29.983Z,10.59
2023-04-22T01:38:57.487Z,10.57
2023-04-22T01:41:26.418Z,10.56
2023-04-22T01:43:54.394Z,10.42
2023-04-22T01:46:21.882Z,10.67
2023-04-22T01:48:51.458Z,10.76
2023-04-22T01:51:20.286Z,10.73
2023-04-22T01:53:48.435Z,10.65
2023-04-22T01:56:15.986Z,10.65
2023-04-22T01:58:44.913Z,10.67
2023-04-22T02:01:13.453Z,10.81
2023-04-22T02:03:41.138Z,10.73
2023-04-22T02:06:08.822Z,10.65
2023-04-22T02:08:36.248Z,10.79
2023-04-22T02:11:04.011Z,10.55
2023-04-22T02:13:36.627Z,10.52
2023-04-22T02:16:06.285Z,10.50
2023-04-22T02:18:33.848Z,10.52
2023-04-22T02:21:01.326Z,10.62
2023-04-22T02:23:28.999Z,10.52
2023-04-22T02:25:56.902Z,10.43
2023-04-22T02:28:24.401Z,10.36
2023-04-22T02:30:51.824Z,10.38
2023-04-22T02:33:20.616Z,10.55
2023-04-22T02:35:48.048Z,10.43
2023-04-22T02:38:15.694Z,10.54
2023-04-22T02:40:43.170Z,10.59
2023-04-22T02:43:10.789Z,10.57
2023-04-22T02:45:38.554Z,10.56
2023-04-22T02:48:06.368Z,10.42
2023-04-22T02:50:35.144Z,10.38
2023-04-22T02:53:02.599Z,10.40
2023-04-22T02:55:30.289Z,10.40
2023-04-22T02:57:57.779Z,10.44
2023-04-22T03:00:25.452Z,10.43
2023-04-22T03:02:53.491Z,10.37
2023-04-22T03:05:21.038Z,10.25
2023-04-22T03:07:49.833Z,10.49
2023-04-22T03:10:17.289Z,10.38
2023-04-22T03:12:44.761Z,10.35
2023-04-22T03:15:12.986Z,10.55
2023-04-22T03:17:40.474Z,10.55
2023-04-22T03:20:09.122Z,10.41
2023-04-22T03:22:36.704Z,10.32
2023-04-22T03:25:06.356Z,10.35
2023-04-22T03:27:33.954Z,10.37
2023-04-22T03:30:01.430Z,10.29
2023-04-22T03:32:28.898Z,10.27
2023-04-22T03:34:56.404Z,10.37
2023-04-22T03:37:23.877Z,10.39
2023-04-22T03:39:51.339Z,10.44
2023-04-22T03:42:20.137Z,10.56
2023-04-22T03:44:47.660Z,10.43
2023-04-22T03:47:15.102Z,10.41
2023-04-22T03:49:42.942Z,10.37
2023-04-22T03:52:10.484Z,10.23
2023-04-22T03:54:38.008Z,10.31
2023-04-22T03:57:05.526Z,10.26
2023-04-22T03:59:34.348Z,10.22
2023-04-22T04:02:01.861Z,9.89
2023-04-22T04:04:30.283Z,10.00
2023-04-22T04:06:58.113Z,10.03
2023-04-22T04:09:25.678Z,10.00
2023-04-22T04:11:53.140Z,10.02
2023-04-22T04:14:20.632Z,10.11
2023-04-22T04:16:49.466Z,10.02
2023-04-22T04:19:17.004Z,10.01
2023-04-22T04:21:45.313Z,9.92
2023-04-22T04:24:12.770Z,9.85
2023-04-22T04:26:40.227Z,9.85
2023-04-22T04:29:08.883Z,10.00
2023-04-22T04:31:36.424Z,9.75
2023-04-22T04:34:05.737Z,9.86
2023-04-22T04:36:34.289Z,10.17
2023-04-22T04:39:01.745Z,10.16
2023-04-22T04:41:29.506Z,9.98
2023-04-22T04:43:56.972Z,9.92
2023-04-22T04:46:24.547Z,9.76
2023-04-22T04:48:53.927Z,9.90
2023-04-22T04:51:22.741Z,9.87
2023-04-22T04:53:50.325Z,10.04
2023-04-22T04:56:17.783Z,10.04
2023-04-22T04:58:45.239Z,10.09
2023-04-22T05:01:12.684Z,10.37
2023-04-22T05:03:40.480Z,10.55
2023-04-22T05:06:08.686Z,10.55
2023-04-22T05:08:37.513Z,10.59
2023-04-22T05:11:05.013Z,10.60
2023-04-22T05:13:32.475Z,10.60
2023-04-22T05:16:00.719Z,10.54
2023-04-22T05:18:28.224Z,10.43
2023-04-22T05:20:55.699Z,10.46
2023-04-22T05:23:23.142Z,10.51
2023-04-22T05:25:53.452Z,10.40
2023-04-22T05:28:21.015Z,10.23
2023-04-22T05:30:48.466Z,10.20
2023-04-22T05:33:16.066Z,10.10
2023-04-22T05:35:43.632Z,10.06
2023-04-22T05:38:11.247Z,10.00
2023-04-22T05:40:39.307Z,10.11
2023-04-22T05:43:09.629Z,10.33
2023-04-22T05:45:37.138Z,10.64
2023-04-22T05:48:04.797Z,10.63
2023-04-22T05:50:32.321Z,10.62
2023-04-22T05:52:59.789Z,10.59
2023-04-22T05:55:27.260Z,10.60
2023-04-22T05:57:54.710Z,10.65
2023-04-22T06:00:23.539Z,10.84
2023-04-22T06:02:51.080Z,11.07
2023-04-22T06:05:18.735Z,11.22
2023-04-22T06:07:46.321Z,11.35
2023-04-22T06:10:13.803Z,11.39
2023-04-22T06:12:41.234Z,11.48
2023-04-22T06:15:09.509Z,11.35
2023-04-22T06:17:39.232Z,11.31
2023-04-22T06:20:07.968Z,11.35
2023-04-22T06:22:35.410Z,11.38
2023-04-22T06:25:03.007Z,11.42
2023-04-22T06:27:30.489Z,11.43
2023-04-22T06:29:58.014Z,11.44
2023-04-22T06:32:25.751Z,11.67
2023-04-22T06:34:54.532Z,11.69
2023-04-22T06:37:22.094Z,11.73
2023-04-22T06:39:49.547Z,11.82
2023-04-22T06:42:17.000Z,12.13
2023-04-22T06:44:44.492Z,12.23
2023-04-22T06:47:12.053Z,12.33
2023-04-22T06:49:39.958Z,12.30
2023-04-22T06:52:08.890Z,12.34
2023-04-22T06:54:36.346Z,12.49
2023-04-22T06:57:03.806Z,12.60
2023-04-22T06:59:31.248Z,12.69
2023-04-22T07:01:58.736Z,12.71
2023-04-22T07:04:27.587Z,12.78
2023-04-22T07:06:55.219Z,12.80
2023-04-22T07:09:24.024Z,12.92
2023-04-22T07:11:51.893Z,12.97
2023-04-22T07:14:19.345Z,13.08
2023-04-22T07:16:47.510Z,13.09
2023-04-22T07:19:15.141Z,13.20
2023-04-22T07:21:42.623Z,13.13
2023-04-22T07:24:12.042Z,13.19
2023-04-22T07:26:41.359Z,13.29
2023-04-22T07:29:08.893Z,13.30
2023-04-22T07:31:36.564Z,13.51
2023-04-22T07:34:04.199Z,13.56
2023-04-22T07:36:32.658Z,13.67
2023-04-22T07:39:00.394Z,13.75
2023-04-22T07:41:27.857Z,13.82
2023-04-22T07:43:56.643Z,13.96
2023-04-22T07:46:24.257Z,14.09
2023-04-22T07:48:51.871Z,14.21
2023-04-22T07:51:19.328Z,14.25
2023-04-22T07:53:46.848Z,14.38
2023-04-22T07:56:14.717Z,14.40
2023-04-22T07:58:42.180Z,14.53
2023-04-22T08:01:11.159Z,14.54
2023-04-22T08:03:38.751Z,14.59
2023-04-22T08:06:07.082Z,14.51
2023-04-22T08:08:34.556Z,14.64
2023-04-22T08:11:02.034Z,14.67
2023-04-22T08:13:29.501Z,14.66
2023-04-22T08:15:57.012Z,14.73
2023-04-22T08:18:27.641Z,14.91
2023-04-22T08:20:55.217Z,14.94
2023-04-22T08:23:23.265Z,15.00
2023-04-22T08:25:51.381Z,15.06
2023-04-22T08:28:19.232Z,15.12
2023-04-22T08:30:46.694Z,15.21
2023-04-22T08:33:14.156Z,15.41
2023-04-22T08:35:43.068Z,15.50
2023-04-22T08:38:10.520Z,15.60
2023-04-22T08:40:41.691Z,15.70
2023-04-22T08:43:09.614Z,15.84
2023-04-22T08:45:39.569Z,15.95
2023-04-22T08:48:08.523Z,16.08
2023-04-22T08:50:38.169Z,16.23
2023-04-22T08:53:06.971Z,16.39
2023-04-22T08:55:35.593Z,16.53
2023-04-22T08:58:04.072Z,16.67
2023-04-22T09:00:32.177Z,16.86
2023-04-22T09:03:00.461Z,17.02
2023-04-22T09:05:28.934Z,17.10
2023-04-22T09:07:57.826Z,17.23
2023-04-22T09:10:26.795Z,17.28
2023-04-22T09:12:55.495Z,17.38
2023-04-22T09:15:23.162Z,17.52
2023-04-22T09:17:52.182Z,17.68
2023-04-22T09:20:20.365Z,17.71
2023-04-22T09:22:50.133Z,17.82
2023-04-22T09:25:18.385Z,17.99
2023-04-22T09:27:51.403Z,18.06
2023-04-22T09:30:20.070Z,18.08
2023-04-22T09:32:55.610Z,18.01
2023-04-22T09:35:27.809Z,17.94
2023-04-22T09:37:55.728Z,18.13
2023-04-22T09:40:23.677Z,17.98
2023-04-22T09:42:56.668Z,18.07
2023-04-22T09:45:29.073Z,18.19
2023-04-22T09:47:57.610Z,18.45
2023-04-22T09:50:26.136Z,18.58
2023-04-22T09:52:58.295Z,18.63
2023-04-22T09:55:27.360Z,18.83
2023-04-22T09:57:57.296Z,19.00
2023-04-22T10:00:27.002Z,19.18
2023-04-22T10:02:54.607Z,19.30
2023-04-22T10:05:22.302Z,19.37
2023-04-22T10:07:49.826Z,19.48
2023-04-22T10:10:17.301Z,19.64
2023-04-22T10:12:45.040Z,19.73
2023-04-22T10:15:13.910Z,19.55
2023-04-22T10:17:41.986Z,19.67
2023-04-22T10:20:14.133Z,19.96
2023-04-22T10:22:43.570Z,19.87
2023-04-22T10:25:14.896Z,20.03
2023-04-22T10:27:42.350Z,20.11
2023-04-22T10:30:12.260Z,20.25
2023-04-22T10:32:41.079Z,20.32
2023-04-22T10:35:11.727Z,20.44
2023-04-22T10:37:42.581Z,20.21
2023-04-22T10:40:13.215Z,20.32
2023-04-22T10:42:41.945Z,20.33
2023-04-22T10:45:13.588Z,20.29
2023-04-22T10:47:43.911Z,20.27
2023-04-22T10:50:13.910Z,20.30
2023-04-22T10:52:42.873Z,20.34
2023-04-22T10:55:10.668Z,20.31
2023-04-22T10:57:40.511Z,20.48
2023-04-22T11:00:35.346Z,20.74
2023-04-22T11:03:29.112Z,20.86
2023-04-22T11:06:16.801Z,20.95
2023-04-22T11:08:47.973Z,21.01
2023-04-22T11:11:15.668Z,21.04
2023-04-22T11:13:43.918Z,20.96
2023-04-22T11:16:11.836Z,20.97
2023-04-22T11:18:40.736Z,20.95
2023-04-22T11:21:09.305Z,21.03
2023-04-22T11:23:36.968Z,21.14
2023-04-22T11:26:06.152Z,21.14
2023-04-22T11:28:37.258Z,20.94
2023-04-22T11:31:06.500Z,20.96
2023-04-22T11:33:36.800Z,21.09
2023-04-22T11:36:06.794Z,21.32
2023-04-22T11:38:34.354Z,21.20
2023-04-22T11:41:02.120Z,21.25
2023-04-22T11:43:29.597Z,21.47
2023-04-22T11:45:58.036Z,21.45
2023-04-22T11:48:28.826Z,21.23
2023-04-22T11:51:11.113Z,21.39
2023-04-22T11:53:41.489Z,21.47
2023-04-22T11:56:09.220Z,21.39
2023-04-22T11:58:42.841Z,21.47
2023-04-22T12:01:13.499Z,21.57
2023-04-22T12:03:41.100Z,21.68
2023-04-22T12:06:10.110Z,21.60
2023-04-22T12:08:40.288Z,21.66
2023-04-22T12:11:10.514Z,21.84
2023-04-22T12:13:43.077Z,21.82
2023-04-22T12:16:17.426Z,21.79
2023-04-22T12:18:50.531Z,21.90
2023-04-22T12:21:23.352Z,21.90
2023-04-22T12:23:53.107Z,21.97
2023-04-22T12:26:26.396Z,21.87
2023-04-22T12:28:55.299Z,21.98
2023-04-22T12:31:23.023Z,21.98
2023-04-22T12:33:50.790Z,22.00
2023-04-22T12:36:20.805Z,21.98
2023-04-22T12:38:48.513Z,21.95
2023-04-22T12:41:16.466Z,22.05
2023-04-22T12:43:43.936Z,21.98
2023-04-22T12:46:11.616Z,22.04
2023-04-22T12:48:39.134Z,22.27
2023-04-22T12:51:07.330Z,22.36
2023-04-22T12:53:36.169Z,22.41
2023-04-22T12:56:04.027Z,22.20
2023-04-22T12:58:31.482Z,22.30
2023-04-22T13:00:58.947Z,22.42
2023-04-22T13:03:26.478Z,22.45
2023-04-22T13:05:54.023Z,22.26
2023-04-22T13:08:21.575Z,22.25
2023-04-22T13:10:50.446Z,22.19
2023-04-22T13:13:19.273Z,21.98
2023-04-22T13:15:47.597Z,21.99
2023-04-22T13:18:16.137Z,21.93
2023-04-22T13:20:43.792Z,21.79
2023-04-22T13:23:11.470Z,21.54
2023-04-22T13:25:38.942Z,21.14
2023-04-22T13:28:07.805Z,20.97
2023-04-22T13:30:35.384Z,20.90
2023-04-22T13:33:03.172Z,20.94
2023-04-22T13:35:31.538Z,20.72
2023-04-22T13:37:59.061Z,20.74
2023-04-22T13:40:27.241Z,20.53
2023-04-22T13:42:54.932Z,20.21
2023-04-22T13:45:24.716Z,20.15
2023-04-22T13:47:52.309Z,20.11
2023-04-22T13:50:19.784Z,20.22
2023-04-22T13:52:47.425Z,20.19
2023-04-22T13:55:15.102Z,20.10
2023-04-22T13:57:42.592Z,20.27
2023-04-22T14:00:11.179Z,20.31
2023-04-22T14:02:40.262Z,20.03
2023-04-22T14:05:10.511Z,19.93
2023-04-22T14:07:38.040Z,20.19
2023-04-22T14:10:08.298Z,20.37
2023-04-22T14:12:35.818Z,20.00
2023-04-22T14:15:03.365Z,19.80
2023-04-22T14:17:31.152Z,20.01
2023-04-22T14:19:59.978Z,19.78
2023-04-22T14:22:27.426Z,19.68
2023-04-22T14:24:55.554Z,19.57
2023-04-22T14:27:23.088Z,19.60
2023-04-22T14:29:52.233Z,19.58
2023-04-22T14:32:19.936Z,19.35
2023-04-22T14:34:47.460Z,19.38
2023-04-22T14:37:16.362Z,19.17
2023-04-22T14:39:43.831Z,19.19
2023-04-22T14:42:11.395Z,19.20
2023-04-22T14:44:38.881Z,19.33
2023-04-22T14:47:06.326Z,19.28
2023-04-22T14:49:33.802Z,19.08
2023-04-22T14:52:01.465Z,18.95
2023-04-22T14:54:30.314Z,19.10
2023-04-22T14:56:58.563Z,18.91
2023-04-22T14:59:26.125Z,18.81
2023-04-22T15:01:53.677Z,18.97
2023-04-22T15:04:21.321Z,19.02
2023-04-22T15:06:48.858Z,19.04
2023-04-22T15:09:16.341Z,19.20
2023-04-22T15:11:45.150Z,19.36
2023-04-22T15:14:12.617Z,19.35
2023-04-22T15:16:40.193Z,19.32
2023-04-22T15:19:07.701Z,19.40
2023-04-22T15:21:35.281Z,19.35
2023-04-22T15:24:02.808Z,19.31
2023-04-22T15:26:30.569Z,19.55
2023-04-22T15:28:59.422Z,19.63
2023-04-22T15:31:27.222Z,19.82
2023-04-22T15:33:54.708Z,19.99
2023-04-22T15:36:22.149Z,20.31
2023-04-22T15:38:55.022Z,20.44
2023-04-22T15:41:22.534Z,20.67
2023-04-22T15:43:51.714Z,20.73
2023-04-22T15:46:20.826Z,20.69
2023-04-22T15:48:48.839Z,20.37
2023-04-22T15:51:16.366Z,20.28
2023-04-22T15:53:45.311Z,20.13
2023-04-22T15:56:13.229Z,19.93
2023-04-22T15:58:40.860Z,19.73
2023-04-22T16:01:18.744Z,19.70
2023-04-22T16:03:49.494Z,19.71
2023-04-22T16:06:17.866Z,19.63
2023-04-22T16:08:45.807Z,19.46
2023-04-22T16:11:15.104Z,19.27
2023-04-22T16:13:42.641Z,19.15
2023-04-22T16:16:10.950Z,19.08
2023-04-22T16:18:38.717Z,18.98
2023-04-22T16:21:07.786Z,19.04
2023-04-22T16:23:35.959Z,18.89
2023-04-22T16:26:04.496Z,18.69
2023-04-22T16:28:32.125Z,18.87
2023-04-22T16:30:59.759Z,18.71
2023-04-22T16:33:27.292Z,18.55
2023-04-22T16:35:54.938Z,18.47
2023-04-22T16:38:24.107Z,18.44
2023-04-22T16:40:54.030Z,18.22
2023-04-22T16:43:21.906Z,18.38
2023-04-22T16:45:49.709Z,18.23
2023-04-22T16:48:17.221Z,18.33
2023-04-22T16:50:44.777Z,18.20
2023-04-22T16:53:12.328Z,18.20
2023-04-22T16:55:41.516Z,18.25
2023-04-22T16:58:09.074Z,18.10
2023-04-22T17:00:37.056Z,18.19
2023-04-22T17:03:05.629Z,18.29
2023-04-22T17:05:33.418Z,18.21
2023-04-22T17:08:00.941Z,18.18
2023-04-22T17:10:29.373Z,18.09
2023-04-22T17:12:58.302Z,18.15
2023-04-22T17:15:25.789Z,18.08
2023-04-22T17:17:53.507Z,18.05
2023-04-22T17:20:21.010Z,17.86
2023-04-22T17:22:48.481Z,17.97
2023-04-22T17:25:16.002Z,17.95
2023-04-22T17:27:43.451Z,17.85
2023-04-22T17:30:13.290Z,17.91
2023-04-22T17:32:40.972Z,17.90
2023-04-22T17:35:09.592Z,17.75
2023-04-22T17:37:37.122Z,17.63
2023-04-22T17:40:05.184Z,17.82
2023-04-22T17:42:44.712Z,17.90
2023-04-22T17:45:14.625Z,17.86
2023-04-22T17:47:42.156Z,17.67
2023-04-22T17:50:10.130Z,17.62
2023-04-22T17:52:37.595Z,17.51
2023-04-22T17:55:06.009Z,17.35
2023-04-22T17:57:33.465Z,17.47
2023-04-22T18:00:01.040Z,17.44
2023-04-22T18:02:30.058Z,17.30
2023-04-22T18:04:57.591Z,17.24
2023-04-22T18:07:25.030Z,17.33
2023-04-22T18:09:52.489Z,17.29
2023-04-22T18:12:20.858Z,17.42
2023-04-22T18:14:48.507Z,17.30
2023-04-22T18:17:19.920Z,17.13
2023-04-22T18:19:50.922Z,17.16
2023-04-22T18:22:19.392Z,17.14
2023-04-22T18:24:46.904Z,17.24
2023-04-22T18:27:14.369Z,17.07
2023-04-22T18:29:42.038Z,16.99
2023-04-22T18:32:09.836Z,16.84
2023-04-22T18:34:37.565Z,16.66
2023-04-22T18:37:07.231Z,16.74
2023-04-22T18:39:34.778Z,16.69
2023-04-22T18:42:02.538Z,16.87
2023-04-22T18:44:30.090Z,16.33
2023-04-22T18:46:58.351Z,16.38
2023-04-22T18:49:26.333Z,16.65
2023-04-22T18:51:53.890Z,16.53
2023-04-22T18:54:22.704Z,16.53
2023-04-22T18:56:50.189Z,16.50
2023-04-22T18:59:17.714Z,16.26
2023-04-22T19:01:45.332Z,16.12
2023-04-22T19:04:13.038Z,16.12
2023-04-22T19:06:41.283Z,16.00
2023-04-22T19:09:08.811Z,16.11
2023-04-22T19:11:37.630Z,16.04
2023-04-22T19:14:05.418Z,15.93
2023-04-22T19:16:32.978Z,15.98
2023-04-22T19:19:00.443Z,15.99
2023-04-22T19:21:29.824Z,15.88
2023-04-22T19:23:57.275Z,15.90
2023-04-22T19:26:24.751Z,15.90
2023-04-22T19:28:53.580Z,15.86
2023-04-22T19:31:21.455Z,15.76
2023-04-22T19:33:49.003Z,15.76
2023-04-22T19:36:16.628Z,15.73
2023-04-22T19:38:44.254Z,15.86
2023-04-22T19:41:11.781Z,15.74
2023-04-22T19:43:40.370Z,15.68
2023-04-22T19:46:09.197Z,15.61
2023-04-22T19:48:37.243Z,15.51
2023-04-22T19:51:06.618Z,15.38
2023-04-22T19:53:34.701Z,15.31
2023-04-22T19:56:02.979Z,15.45
2023-04-22T19:58:30.931Z,15.49
2023-04-22T20:00:58.687Z,15.36
2023-04-22T20:03:28.334Z,15.46
2023-04-22T20:05:56.115Z,15.39
2023-04-22T20:08:27.111Z,15.14
2023-04-22T20:10:54.928Z,15.34
2023-04-22T20:13:23.026Z,15.35
2023-04-22T20:15:50.925Z,15.23
2023-04-22T20:18:18.650Z,15.33
2023-04-22T20:20:48.619Z,15.33
2023-04-22T20:23:16.721Z,15.28
2023-04-22T20:25:45.559Z,15.12
2023-04-22T20:28:13.294Z,15.03
2023-04-22T20:30:41.473Z,15.12
2023-04-22T20:33:12.057Z,15.00
2023-04-22T20:35:40.290Z,15.06
2023-04-22T20:38:12.350Z,14.98
2023-04-22T20:40:40.048Z,14.86
2023-04-22T20:43:07.717Z,14.81
2023-04-22T20:45:35.228Z,14.95
2023-04-22T20:48:02.773Z,15.04
2023-04-22T20:50:33.267Z,14.93
2023-04-22T20:53:01.171Z,14.90
2023-04-22T20:55:29.985Z,14.75
2023-04-22T20:57:57.422Z,14.82
2023-04-22T21:00:24.907Z,14.66
2023-04-22T21:02:52.947Z,14.70
2023-04-22T21:05:21.839Z,14.86
2023-04-22T21:07:52.222Z,14.79
2023-04-22T21:10:20.706Z,14.66
2023-04-22T21:12:50.271Z,14.63
2023-04-22T21:15:18.486Z,14.54
2023-04-22T21:17:51.558Z,14.53
2023-04-22T21:20:19.747Z,14.37
2023-04-22T21:22:47.559Z,14.42
2023-04-22T21:25:15.737Z,14.33
2023-04-22T21:27:43.588Z,14.44
2023-04-22T21:30:13.907Z,14.48
2023-04-22T21:32:42.136Z,14.43
2023-04-22T21:35:09.950Z,14.32
2023-04-22T21:37:37.490Z,14.20
2023-04-22T21:40:06.012Z,14.21
2023-04-22T21:42:33.450Z,14.22
2023-04-22T21:45:00.890Z,14.10
2023-04-22T21:47:29.749Z,13.94
2023-04-22T21:49:57.213Z,14.04
2023-04-22T21:52:24.702Z,14.06
2023-04-22T21:54:52.202Z,13.88
2023-04-22T21:57:19.683Z,13.83
2023-04-22T21:59:47.153Z,13.93
2023-04-22T22:02:14.630Z,14.05
2023-04-22T22:04:43.659Z,13.95
2023-04-22T22:07:12.168Z,13.95
2023-04-22T22:09:40.924Z,13.94
2023-04-22T22:12:10.567Z,13.72
2023-04-22T22:14:39.015Z,13.71
2023-04-22T22:17:08.311Z,13.71
2023-04-22T22:19:35.818Z,13.85
2023-04-22T22:22:04.628Z,13.78
2023-04-22T22:24:32.097Z,13.77
2023-04-22T22:26:59.533Z,13.68
2023-04-22T22:29:27.058Z,13.52
2023-04-22T22:31:54.616Z,13.46
2023-04-22T22:34:22.064Z,13.57
2023-04-22T22:36:49.620Z,13.40
2023-04-22T22:39:18.454Z,13.64
2023-04-22T22:41:45.972Z,13.38
2023-04-22T22:44:13.435Z,13.33
2023-04-22T22:46:41.266Z,13.20
2023-04-22T22:49:08.866Z,13.01
2023-04-22T22:51:37.332Z,13.12
2023-04-22T22:54:05.290Z,12.99
2023-04-22T22:56:34.203Z,12.92
2023-04-22T22:59:01.675Z,12.82
2023-04-22T23:01:29.172Z,12.87
2023-04-22T23:03:56.790Z,12.82
2023-04-22T23:06:24.411Z,12.88
2023-04-22T23:08:51.840Z,12.70
2023-04-22T23:11:19.345Z,12.71
2023-04-22T23:13:48.177Z,12.92
2023-04-22T23:16:15.637Z,12.92
2023-04-22T23:18:44.397Z,12.83
2023-04-22T23:21:12.446Z,12.80
2023-04-22T23:23:40.436Z,12.80
2023-04-22T23:26:08.713Z,12.69
2023-04-22T23:28:36.818Z,12.80
2023-04-22T23:31:07.782Z,12.87
2023-04-22T23:33:36.613Z,12.76
2023-04-22T23:36:06.640Z,12.66
2023-04-22T23:38:34.090Z,12.76
2023-04-22T23:41:01.528Z,12.76
2023-04-22T23:43:29.005Z,12.60
2023-04-22T23:45:56.683Z,12.52
2023-04-22T23:48:25.602Z,12.50
2023-04-22T23:50:53.110Z,12.50
2023-04-22T23:53:20.674Z,12.44
2023-04-22T23:55:48.765Z,12.60
2023-04-22T23:58:16.516Z,12.49
